Fontana, Kansas
Current Conditions -  °F | °C
As of 5:53 AM on Thursday 27 Nov 2014 (Local Time) from KIXD Reporting Station
Broken Clouds Broken Clouds  
Wind Chill: 13°   Ceiling: 1200
Heat Index: 21°   Visibility: 7mi
Dew Point: 18°   Wind: 6mph
Humidity: 88%   Direction: 360°N
Pressure: 30.47"   Gusts: NA
Location:  38.43°N, 94.84°W
Report Text: KIXD 271153Z 36005KT 7SM BKN012 M06/M08 A3047 RMK AO2 SLP329 T10611078 11022 21067 55001
Loading
Personal Weather Stations






























Interactive Weather Map New forecast layout! Learn more

10-Day Weather Forecast

Advertisements
Track Severe Weather on mobile